Time;durP1;ratioP1;P1;durP2;ratioP2;P2;SDS_P1;SDS_P2;PMS_P1;PMS_P2;Temp;Humidity;BMP_temperature;BMP_pressure;BME280_temperature;BME280_humidity;BME280_pressure;Samples;Min_cycle;Max_cycle;Signal;HPM_P1;HPM_P2
2022/01/15 00:01:50;;;;;;;29.98;14.48;;;2.80;99.90;;;;;;5108971;28;20069;-68
2022/01/15 00:04:16;;;;;;;26.05;13.82;;;2.70;99.90;;;;;;5107988;28;20530;-67
2022/01/15 00:06:41;;;;;;;28.33;13.15;;;2.70;99.90;;;;;;5108285;28;20027;-66
2022/01/15 00:09:07;;;;;;;26.42;13.10;;;2.70;99.90;;;;;;5107411;28;20024;-67
2022/01/15 00:11:34;;;;;;;28.80;13.52;;;2.70;99.90;;;;;;5108450;28;20032;-68
2022/01/15 00:14:22;;;;;;;32.55;13.98;;;2.70;99.90;;;;;;5109125;28;20035;-67
2022/01/15 00:17:04;;;;;;;31.60;15.02;;;2.70;99.90;;;;;;5107232;28;20114;-66
2022/01/15 00:19:49;;;;;;;;;;;2.80;99.90;;;;;;5116699;27;20015;-65
2022/01/15 00:22:18;;;;;;;31.35;14.55;;;2.70;99.90;;;;;;5124228;27;19920;-67
2022/01/15 00:24:45;;;;;;;31.02;13.10;;;2.60;99.90;;;;;;5122535;27;20019;-65
2022/01/15 00:27:12;;;;;;;28.20;13.25;;;2.60;99.90;;;;;;5122751;27;20457;-66
2022/01/15 00:29:38;;;;;;;42.42;14.90;;;2.60;99.90;;;;;;5112271;28;20024;-67
2022/01/15 00:32:05;;;;;;;32.05;14.98;;;2.60;99.90;;;;;;5111608;28;20381;-64
2022/01/15 00:34:31;;;;;;;34.97;14.68;;;2.70;99.90;;;;;;5113207;28;20042;-66
2022/01/15 00:36:57;;;;;;;35.05;16.52;;;2.70;99.90;;;;;;5112306;28;20385;-66
2022/01/15 00:39:23;;;;;;;32.80;15.32;;;2.70;99.90;;;;;;5113113;28;20032;-66
2022/01/15 00:41:49;;;;;;;32.15;14.30;;;2.70;99.90;;;;;;5113451;28;20030;-66
2022/01/15 00:44:15;;;;;;;25.58;13.30;;;2.70;99.90;;;;;;5113868;28;20024;-66
2022/01/15 00:46:41;;;;;;;33.80;14.23;;;2.70;99.90;;;;;;5113606;28;20020;-67
2022/01/15 00:49:06;;;;;;;33.50;14.75;;;2.80;99.90;;;;;;5112628;28;20102;-68
2022/01/15 00:51:32;;;;;;;32.75;13.10;;;2.80;99.90;;;;;;5111620;28;20031;-66
2022/01/15 00:53:58;;;;;;;29.42;13.10;;;2.80;99.90;;;;;;5110909;28;20468;-66
2022/01/15 00:56:23;;;;;;;38.42;13.20;;;2.80;99.90;;;;;;5111419;28;20461;-66
2022/01/15 00:58:52;;;;;;;27.60;13.82;;;2.70;99.90;;;;;;5111406;28;20020;-66
2022/01/15 01:01:17;;;;;;;27.00;13.93;;;2.80;99.90;;;;;;5112133;28;20023;-65
2022/01/15 01:03:43;;;;;;;29.77;15.30;;;2.70;99.90;;;;;;5116749;28;20031;-66
2022/01/15 01:06:09;;;;;;;31.88;14.68;;;2.70;99.90;;;;;;5116001;28;20027;-64
2022/01/15 01:08:34;;;;;;;33.03;13.68;;;2.60;99.90;;;;;;5116673;28;20432;-67
2022/01/15 01:11:09;;;;;;;24.50;13.05;;;2.60;99.90;;;;;;5116561;28;20072;-66
2022/01/15 01:24:12;;;;;;;;;;;2.70;99.90;;;;;;5116943;28;20030;-68
2022/01/15 01:26:48;;;;;;;28.30;12.80;;;2.70;99.90;;;;;;5115240;28;20360;-69
2022/01/15 01:32:01;;;;;;;28.30;14.73;;;2.70;99.90;;;;;;5116587;28;20392;-65
2022/01/15 01:34:30;;;;;;;25.45;12.27;;;2.80;99.90;;;;;;5116595;28;20043;-65
2022/01/15 01:37:16;;;;;;;26.15;13.50;;;2.70;99.90;;;;;;5117497;28;20060;-70
2022/01/15 01:39:50;;;;;;;25.65;12.32;;;2.70;99.90;;;;;;5117844;28;20019;-66
2022/01/15 01:45:01;;;;;;;26.98;12.85;;;2.70;99.90;;;;;;5116344;28;20384;-65
2022/01/15 01:47:40;;;;;;;29.27;15.18;;;2.70;99.90;;;;;;5114520;28;20093;-64
2022/01/15 01:50:18;;;;;;;29.65;13.57;;;2.70;99.90;;;;;;5114315;28;20027;-64
2022/01/15 01:52:47;;;;;;;28.88;13.38;;;2.90;99.90;;;;;;5115971;28;20035;-66
2022/01/15 01:55:14;;;;;;;26.30;12.32;;;2.80;99.90;;;;;;5115277;28;20028;-66
2022/01/15 01:57:40;;;;;;;30.92;14.50;;;2.80;99.90;;;;;;5114957;28;20046;-66
2022/01/15 02:00:10;;;;;;;28.85;13.40;;;2.90;99.90;;;;;;5115608;28;20103;-65
2022/01/15 02:02:36;;;;;;;29.20;13.02;;;3.00;99.90;;;;;;5115095;28;20038;-66
2022/01/15 02:05:02;;;;;;;30.52;15.57;;;3.00;99.90;;;;;;5115939;28;20106;-66
2022/01/15 02:07:29;;;;;;;40.38;14.38;;;3.00;99.90;;;;;;5115546;28;20069;-69
2022/01/15 02:09:55;;;;;;;34.53;16.77;;;2.90;99.90;;;;;;5116052;28;20030;-66
2022/01/15 02:12:21;;;;;;;29.13;14.82;;;2.90;99.90;;;;;;5115213;28;20027;-66
2022/01/15 02:14:47;;;;;;;33.90;15.60;;;2.80;99.90;;;;;;5116754;28;20462;-68
2022/01/15 02:17:17;;;;;;;35.22;14.52;;;2.80;99.90;;;;;;5115243;28;20043;-68
2022/01/15 02:20:08;;;;;;;31.88;15.27;;;2.80;99.90;;;;;;5116125;28;20026;-66
2022/01/15 02:25:16;;;;;;;37.63;17.50;;;2.90;99.90;;;;;;5114752;28;20062;-66
2022/01/15 02:27:41;;;;;;;35.92;15.73;;;2.90;99.90;;;;;;5115298;28;20019;-65
2022/01/15 02:30:08;;;;;;;32.15;14.57;;;2.90;99.90;;;;;;5114469;28;20072;-64
2022/01/15 02:32:35;;;;;;;31.38;14.10;;;2.90;99.90;;;;;;5113671;28;20039;-65
2022/01/15 02:35:02;;;;;;;32.60;14.10;;;2.90;99.90;;;;;;5114045;28;20020;-67
2022/01/15 02:37:31;;;;;;;36.17;16.00;;;2.90;99.90;;;;;;5114843;28;20030;-65
2022/01/15 02:39:58;;;;;;;37.03;13.88;;;2.80;99.90;;;;;;5114440;28;20114;-65
2022/01/15 02:42:27;;;;;;;31.50;14.50;;;2.80;99.90;;;;;;5114057;27;20473;-66
2022/01/15 02:44:59;;;;;;;33.63;15.20;;;2.80;99.90;;;;;;5114891;28;20027;-65
2022/01/15 02:50:09;;;;;;;33.50;14.65;;;2.80;99.90;;;;;;5115234;28;20234;-65
2022/01/15 02:52:35;;;;;;;33.75;15.55;;;2.80;99.90;;;;;;5114564;28;20119;-65
2022/01/15 02:55:01;;;;;;;36.85;16.63;;;2.90;99.90;;;;;;5113605;28;20031;-65
2022/01/15 02:57:26;;;;;;;30.70;15.27;;;2.80;99.90;;;;;;5113928;28;20015;-65
2022/01/15 02:59:52;;;;;;;35.15;15.18;;;3.10;99.90;;;;;;5114494;28;20023;-65
2022/01/15 03:02:21;;;;;;;30.92;15.15;;;2.90;99.90;;;;;;5113442;28;20077;-65
2022/01/15 03:04:48;;;;;;;30.60;14.77;;;2.80;99.90;;;;;;5114568;28;20027;-65
2022/01/15 03:07:13;;;;;;;33.55;14.98;;;2.80;99.90;;;;;;5114124;28;20480;-65
2022/01/15 03:09:40;;;;;;;29.70;14.68;;;3.00;99.90;;;;;;5115154;28;20028;-65
2022/01/15 03:12:07;;;;;;;28.40;13.10;;;2.90;99.90;;;;;;5114615;28;20516;-66
2022/01/15 03:14:33;;;;;;;34.75;14.48;;;2.90;99.90;;;;;;5115117;28;20437;-65
2022/01/15 03:16:59;;;;;;;28.92;13.40;;;2.80;99.90;;;;;;5114989;27;20078;-64
2022/01/15 03:19:25;;;;;;;26.35;12.73;;;2.90;99.90;;;;;;5114360;28;20429;-65
2022/01/15 03:21:50;;;;;;;31.17;13.88;;;2.90;99.90;;;;;;5113860;28;20055;-65
2022/01/15 03:24:16;;;;;;;31.60;15.32;;;2.90;99.90;;;;;;5111313;28;20031;-64
2022/01/15 03:26:42;;;;;;;31.58;14.55;;;3.00;99.90;;;;;;5113860;28;20050;-73
2022/01/15 03:29:07;;;;;;;32.47;14.93;;;3.00;99.90;;;;;;5112421;28;20028;-66
2022/01/15 03:31:33;;;;;;;30.55;15.27;;;3.00;99.90;;;;;;5113493;28;20107;-65
2022/01/15 03:33:58;;;;;;;30.23;15.25;;;2.90;99.90;;;;;;5113564;28;20028;-66
2022/01/15 03:36:24;;;;;;;27.20;14.23;;;2.90;99.90;;;;;;5111731;28;20023;-65
2022/01/15 03:38:50;;;;;;;28.95;14.55;;;2.90;99.90;;;;;;5113305;28;20032;-64
2022/01/15 03:41:16;;;;;;;32.75;14.55;;;2.90;99.90;;;;;;5112929;28;20024;-66
2022/01/15 03:43:41;;;;;;;26.25;13.65;;;2.90;99.90;;;;;;5113562;28;20027;-66
2022/01/15 03:46:07;;;;;;;25.80;12.98;;;3.00;99.90;;;;;;5112708;28;20098;-65
2022/01/15 03:48:33;;;;;;;27.85;13.73;;;3.00;99.90;;;;;;5112907;28;20081;-64
2022/01/15 03:50:59;;;;;;;29.60;13.20;;;3.10;99.90;;;;;;5113108;28;20031;-65
2022/01/15 03:53:24;;;;;;;27.45;12.65;;;3.10;99.90;;;;;;5112867;28;20077;-65
2022/01/15 03:55:51;;;;;;;28.05;13.90;;;3.10;99.90;;;;;;5113102;28;20059;-64
2022/01/15 03:58:17;;;;;;;24.67;12.43;;;3.00;99.90;;;;;;5111509;28;20047;-66
2022/01/15 04:00:43;;;;;;;26.70;14.10;;;3.10;99.90;;;;;;5112087;28;20027;-65
2022/01/15 04:03:08;;;;;;;32.25;14.10;;;3.00;99.90;;;;;;5112713;28;20027;-65
2022/01/15 04:05:34;;;;;;;27.67;13.45;;;3.10;99.90;;;;;;5113025;28;20019;-65
2022/01/15 04:08:00;;;;;;;27.75;13.45;;;3.10;99.90;;;;;;5112317;28;20028;-66
2022/01/15 04:10:26;;;;;;;27.35;14.73;;;3.00;99.90;;;;;;5113327;27;20890;-65
2022/01/15 04:12:52;;;;;;;27.48;13.25;;;3.00;99.90;;;;;;5112848;28;20031;-65
2022/01/15 04:15:18;;;;;;;25.17;13.13;;;3.00;99.90;;;;;;5111487;28;20389;-65
2022/01/15 04:17:46;;;;;;;27.48;13.18;;;3.00;99.90;;;;;;5112191;28;20034;-64
2022/01/15 04:20:13;;;;;;;28.25;13.27;;;3.10;99.90;;;;;;5114938;28;20039;-65
2022/01/15 04:22:44;;;;;;;28.20;14.68;;;3.10;99.90;;;;;;5115266;28;20134;-65
2022/01/15 04:25:10;;;;;;;27.45;14.05;;;3.10;99.90;;;;;;5111333;28;20063;-65
2022/01/15 04:27:37;;;;;;;26.20;12.35;;;3.10;99.90;;;;;;5112804;28;20026;-66
2022/01/15 04:30:05;;;;;;;27.70;14.60;;;3.10;99.90;;;;;;5112823;28;20028;-66
2022/01/15 04:32:31;;;;;;;26.88;12.85;;;3.10;99.90;;;;;;5110977;28;20038;-65
2022/01/15 04:34:58;;;;;;;24.35;13.18;;;3.20;99.90;;;;;;5112683;28;20023;-65
2022/01/15 04:37:32;;;;;;;29.33;14.20;;;3.10;99.90;;;;;;5118306;28;20041;-65
2022/01/15 04:39:57;;;;;;;22.30;12.23;;;3.00;99.90;;;;;;5118524;28;20464;-67
2022/01/15 04:42:25;;;;;;;21.75;10.95;;;3.10;99.90;;;;;;5119329;28;20035;-64
2022/01/15 04:44:50;;;;;;;25.15;12.70;;;3.10;99.90;;;;;;5119547;28;20421;-65
2022/01/15 04:47:16;;;;;;;22.48;12.32;;;3.10;99.90;;;;;;5118959;28;20066;-65
2022/01/15 04:49:42;;;;;;;22.85;12.45;;;3.20;99.90;;;;;;5119644;28;20051;-66
2022/01/15 04:52:07;;;;;;;24.13;10.70;;;3.10;99.90;;;;;;5118171;28;20031;-65
2022/01/15 04:54:33;;;;;;;22.83;11.23;;;3.20;99.90;;;;;;5119328;28;20091;-65
2022/01/15 04:56:59;;;;;;;24.70;10.75;;;3.20;99.90;;;;;;5119054;28;20043;-66
2022/01/15 04:59:24;;;;;;;19.58;11.05;;;3.10;99.90;;;;;;5118791;28;20116;-66
2022/01/15 05:01:50;;;;;;;20.63;10.00;;;3.20;99.90;;;;;;5119538;28;20099;-66
2022/01/15 05:04:16;;;;;;;16.42;9.32;;;3.30;99.90;;;;;;5119260;28;20027;-67
2022/01/15 05:06:42;;;;;;;14.65;9.90;;;3.20;99.90;;;;;;5119443;28;20034;-66
2022/01/15 05:09:08;;;;;;;17.27;8.60;;;3.10;99.90;;;;;;5120492;28;20477;-65
2022/01/15 05:14:12;;;;;;;13.30;7.32;;;3.20;99.90;;;;;;5119516;27;20114;-70
2022/01/15 05:16:38;;;;;;;13.75;7.45;;;3.40;99.90;;;;;;5120925;28;20020;-67
2022/01/15 05:19:04;;;;;;;13.35;7.63;;;3.40;99.90;;;;;;5120392;27;20049;-69
2022/01/15 05:21:30;;;;;;;11.32;6.75;;;3.30;99.90;;;;;;5118596;28;20078;-66
2022/01/15 05:23:56;;;;;;;11.68;7.07;;;3.30;99.90;;;;;;5120250;28;20047;-66
2022/01/15 05:26:21;;;;;;;13.23;6.38;;;3.40;99.90;;;;;;5119316;28;20039;-66
2022/01/15 05:28:47;;;;;;;10.30;6.43;;;3.30;99.90;;;;;;5120058;28;20038;-65
2022/01/15 05:31:13;;;;;;;12.35;7.15;;;3.40;99.90;;;;;;5118042;28;20071;-67
2022/01/15 05:33:38;;;;;;;13.35;6.60;;;3.30;99.90;;;;;;5118241;28;20173;-65
2022/01/15 05:36:04;;;;;;;12.15;6.50;;;3.40;99.90;;;;;;5119196;28;20024;-65
2022/01/15 05:38:30;;;;;;;12.88;7.55;;;3.30;99.90;;;;;;5118579;28;20039;-72
2022/01/15 05:40:56;;;;;;;11.73;7.90;;;3.40;99.90;;;;;;5118062;28;20108;-65
2022/01/15 05:43:21;;;;;;;13.02;6.78;;;3.30;99.90;;;;;;5118873;28;20034;-67
2022/01/15 05:45:47;;;;;;;11.70;6.85;;;3.30;99.90;;;;;;5117668;28;20177;-65
2022/01/15 05:48:13;;;;;;;10.23;7.18;;;3.30;99.90;;;;;;5114071;28;20023;-67
2022/01/15 05:50:39;;;;;;;13.35;7.10;;;3.40;99.90;;;;;;5115098;28;20479;-67
2022/01/15 05:53:04;;;;;;;12.18;8.35;;;3.30;99.90;;;;;;5116447;28;20054;-65
2022/01/15 05:55:30;;;;;;;16.23;8.70;;;3.30;99.90;;;;;;5115329;28;20452;-67
2022/01/15 05:57:56;;;;;;;14.98;8.88;;;3.30;99.90;;;;;;5114344;28;20031;-65
2022/01/15 06:00:21;;;;;;;14.13;8.77;;;3.30;99.90;;;;;;5115158;28;20026;-65
2022/01/15 06:02:47;;;;;;;15.60;7.75;;;3.30;99.90;;;;;;5115697;28;20114;-66
2022/01/15 06:05:13;;;;;;;19.98;9.32;;;3.30;99.90;;;;;;5115089;28;20051;-67
2022/01/15 06:07:39;;;;;;;16.33;8.40;;;3.40;99.90;;;;;;5115138;28;20028;-66
2022/01/15 06:10:05;;;;;;;13.55;7.95;;;3.50;99.90;;;;;;5115436;28;20073;-65
2022/01/15 06:12:32;;;;;;;15.48;8.63;;;3.50;99.90;;;;;;5114857;28;20091;-67
2022/01/15 06:14:59;;;;;;;14.93;8.23;;;3.40;99.90;;;;;;5113817;28;20044;-68
2022/01/15 06:17:25;;;;;;;14.45;8.60;;;3.40;99.90;;;;;;5115211;28;20365;-65
2022/01/15 06:19:51;;;;;;;16.48;9.13;;;3.40;99.90;;;;;;5114352;28;20035;-67
2022/01/15 06:22:17;;;;;;;17.52;8.27;;;3.50;99.90;;;;;;5116194;28;20051;-65
2022/01/15 06:24:43;;;;;;;13.45;7.32;;;3.50;99.90;;;;;;5115847;28;20036;-66
2022/01/15 06:27:11;;;;;;;11.90;7.63;;;3.60;99.90;;;;;;5115609;28;20023;-66
2022/01/15 06:29:38;;;;;;;16.92;8.65;;;3.60;99.90;;;;;;5114475;28;20502;-66
2022/01/15 06:32:04;;;;;;;14.18;7.30;;;3.70;99.90;;;;;;5115225;28;20024;-66
2022/01/15 06:34:29;;;;;;;10.95;7.32;;;3.70;99.90;;;;;;5114347;28;20085;-66
2022/01/15 06:36:55;;;;;;;12.60;6.72;;;3.70;99.90;;;;;;5113852;28;20024;-66
2022/01/15 06:39:21;;;;;;;11.40;6.88;;;3.60;99.90;;;;;;5112962;28;20034;-66
2022/01/15 06:41:46;;;;;;;13.65;8.05;;;3.60;99.90;;;;;;5113352;28;20443;-65
2022/01/15 06:44:12;;;;;;;13.40;8.35;;;3.60;99.90;;;;;;5114538;28;20028;-67
2022/01/15 06:46:38;;;;;;;14.80;8.48;;;3.60;99.90;;;;;;5114112;28;20103;-66
2022/01/15 06:49:03;;;;;;;15.75;8.13;;;3.60;99.90;;;;;;5113362;28;20110;-66
2022/01/15 06:51:29;;;;;;;13.32;8.07;;;3.50;99.90;;;;;;5113849;28;20373;-66
2022/01/15 06:53:55;;;;;;;15.85;7.97;;;3.50;99.90;;;;;;5113161;28;20078;-66
2022/01/15 06:56:20;;;;;;;13.48;7.70;;;3.50;99.90;;;;;;5114176;28;20039;-65
2022/01/15 06:58:46;;;;;;;10.13;6.72;;;3.50;99.90;;;;;;5114248;28;20016;-65
2022/01/15 07:01:12;;;;;;;14.25;7.70;;;3.50;99.90;;;;;;5114624;28;20020;-65
2022/01/15 07:03:38;;;;;;;15.18;6.80;;;3.40;99.90;;;;;;5112451;28;20027;-66
2022/01/15 07:06:03;;;;;;;14.63;7.53;;;3.50;99.90;;;;;;5114468;28;20016;-66
2022/01/15 07:08:29;;;;;;;13.25;7.78;;;3.60;99.90;;;;;;5114223;28;20038;-65
2022/01/15 07:10:55;;;;;;;10.85;6.50;;;3.50;99.90;;;;;;5112850;28;20027;-67
2022/01/15 07:13:20;;;;;;;18.13;7.53;;;3.60;99.90;;;;;;5112145;28;20039;-67
2022/01/15 07:15:47;;;;;;;13.85;7.28;;;3.70;99.90;;;;;;5112747;28;20034;-64
2022/01/15 07:18:13;;;;;;;10.68;6.25;;;3.70;99.90;;;;;;5114133;28;20107;-66
2022/01/15 07:20:39;;;;;;;9.30;5.20;;;3.60;99.90;;;;;;5114490;28;20047;-66
2022/01/15 07:23:04;;;;;;;10.93;5.57;;;3.60;99.90;;;;;;5115619;28;20051;-66
2022/01/15 07:25:30;;;;;;;8.52;5.88;;;3.70;99.90;;;;;;5113484;28;20031;-69
2022/01/15 07:27:56;;;;;;;10.93;5.32;;;3.70;99.90;;;;;;5113781;28;20028;-65
2022/01/15 07:30:22;;;;;;;15.35;7.25;;;3.70;99.90;;;;;;5112836;28;20373;-65
2022/01/15 07:32:47;;;;;;;20.80;8.52;;;3.70;99.90;;;;;;5113199;28;20391;-64
2022/01/15 07:35:13;;;;;;;14.75;8.00;;;3.70;99.90;;;;;;5112520;28;20126;-64
2022/01/15 07:37:39;;;;;;;13.77;7.72;;;3.60;99.90;;;;;;5111778;28;20377;-67
2022/01/15 07:40:06;;;;;;;16.30;8.55;;;3.60;99.90;;;;;;5113829;28;20028;-65
2022/01/15 07:42:36;;;;;;;18.52;8.82;;;3.60;99.90;;;;;;5112118;28;20039;-66
2022/01/15 07:45:07;;;;;;;19.85;10.77;;;3.50;99.90;;;;;;5112731;28;20034;-66
2022/01/15 07:47:33;;;;;;;15.32;9.20;;;3.50;99.90;;;;;;5112107;28;20024;-69
2022/01/15 07:49:59;;;;;;;18.73;10.20;;;3.60;99.90;;;;;;5111961;28;20039;-64
2022/01/15 07:52:25;;;;;;;17.17;8.95;;;3.60;99.90;;;;;;5112941;28;20042;-65
2022/01/15 07:54:51;;;;;;;21.00;8.98;;;3.60;99.90;;;;;;5113498;28;20114;-66
2022/01/15 07:57:16;;;;;;;18.38;8.13;;;3.60;99.90;;;;;;5113303;28;20444;-66
2022/01/15 07:59:42;;;;;;;17.48;8.90;;;3.60;99.90;;;;;;5111643;28;20464;-66
2022/01/15 08:02:08;;;;;;;17.25;9.05;;;3.70;99.90;;;;;;5113760;28;20027;-65
2022/01/15 08:04:33;;;;;;;15.63;8.57;;;3.70;99.90;;;;;;5112452;28;20376;-65
2022/01/15 08:06:59;;;;;;;17.10;9.88;;;3.70;99.90;;;;;;5113559;28;20028;-65
2022/01/15 08:09:25;;;;;;;20.48;8.93;;;3.60;99.90;;;;;;5111901;28;20491;-64
2022/01/15 08:11:50;;;;;;;14.82;7.28;;;3.60;99.90;;;;;;5111456;28;20031;-66
2022/01/15 08:14:16;;;;;;;15.30;7.68;;;3.60;99.90;;;;;;5113187;28;20106;-66
2022/01/15 08:16:42;;;;;;;14.43;7.68;;;3.60;99.90;;;;;;5113996;28;20028;-66
2022/01/15 08:19:07;;;;;;;16.35;8.30;;;3.60;99.90;;;;;;5112822;28;20028;-66
2022/01/15 08:21:33;;;;;;;13.48;8.00;;;3.70;99.90;;;;;;5111011;28;20024;-66
2022/01/15 08:23:59;;;;;;;17.38;8.50;;;3.70;99.90;;;;;;5113111;28;20148;-66
2022/01/15 08:26:24;;;;;;;16.23;7.32;;;3.70;99.90;;;;;;5112243;28;20028;-64
2022/01/15 08:28:50;;;;;;;14.82;8.32;;;3.80;99.90;;;;;;5112728;28;20106;-65
2022/01/15 08:31:16;;;;;;;19.58;8.80;;;3.70;99.90;;;;;;5113055;28;20069;-65
2022/01/15 08:33:42;;;;;;;18.33;8.98;;;3.70;99.90;;;;;;5112500;28;20093;-71
2022/01/15 08:36:07;;;;;;;12.70;7.30;;;3.70;99.90;;;;;;5111281;28;20389;-64
2022/01/15 08:38:33;;;;;;;10.05;5.85;;;3.70;99.90;;;;;;5110944;28;20114;-65
2022/01/15 08:40:59;;;;;;;10.95;6.07;;;3.80;99.90;;;;;;5111867;28;20430;-65
2022/01/15 08:43:24;;;;;;;8.82;5.63;;;3.80;99.90;;;;;;5111039;28;20023;-68
2022/01/15 08:45:50;;;;;;;8.40;4.85;;;3.80;99.90;;;;;;5114274;28;20400;-68
2022/01/15 08:48:19;;;;;;;11.43;6.50;;;3.90;99.90;;;;;;5115085;28;20381;-67
2022/01/15 08:50:46;;;;;;;10.70;6.00;;;4.00;99.90;;;;;;5111418;28;20047;-68
2022/01/15 08:53:13;;;;;;;11.23;6.90;;;4.00;99.90;;;;;;5111510;28;20042;-65
2022/01/15 08:55:39;;;;;;;9.77;5.97;;;4.00;99.90;;;;;;5112613;28;20020;-66
2022/01/15 08:58:05;;;;;;;10.82;5.90;;;4.00;99.90;;;;;;5111607;28;20046;-68
2022/01/15 09:00:31;;;;;;;8.65;5.88;;;4.00;99.90;;;;;;5110524;28;20026;-67
2022/01/15 09:02:57;;;;;;;9.63;6.28;;;4.10;99.90;;;;;;5112726;28;20028;-65
2022/01/15 09:05:23;;;;;;;7.63;4.85;;;4.00;99.90;;;;;;5111490;28;20030;-66
2022/01/15 09:07:49;;;;;;;6.72;4.03;;;4.00;99.90;;;;;;5110577;28;20024;-65
2022/01/15 09:10:15;;;;;;;8.43;4.63;;;4.00;99.90;;;;;;5112447;28;20016;-67
2022/01/15 09:12:41;;;;;;;8.88;5.38;;;3.90;99.90;;;;;;5112346;28;20114;-67
2022/01/15 09:15:07;;;;;;;11.88;5.60;;;3.60;99.90;;;;;;5111039;28;20023;-66
2022/01/15 09:17:33;;;;;;;11.05;5.50;;;3.80;99.90;;;;;;5111800;28;20030;-66
2022/01/15 09:19:59;;;;;;;10.90;5.28;;;4.00;99.90;;;;;;5112654;28;20115;-70
2022/01/15 09:22:25;;;;;;;9.38;5.30;;;3.80;99.90;;;;;;5110640;28;20130;-71
2022/01/15 09:24:51;;;;;;;13.05;5.20;;;3.70;99.90;;;;;;5124475;27;20023;-65
2022/01/15 09:30:12;;;;;;;8.05;4.90;;;3.80;99.90;;;;;;5123048;27;20434;-66
2022/01/15 09:32:40;;;;;;;13.70;6.15;;;3.90;99.90;;;;;;5114062;28;20380;-65
2022/01/15 09:35:06;;;;;;;8.52;5.45;;;4.20;99.90;;;;;;5116271;27;20046;-66
2022/01/15 09:37:32;;;;;;;7.32;4.90;;;4.60;99.90;;;;;;5113983;28;20024;-65
2022/01/15 09:39:58;;;;;;;6.72;4.75;;;5.20;99.90;;;;;;5116260;28;20153;-66
2022/01/15 09:42:28;;;;;;;6.10;4.45;;;5.50;99.90;;;;;;5115802;28;20481;-65
2022/01/15 09:44:54;;;;;;;6.68;4.53;;;5.30;99.90;;;;;;5114394;28;20516;-66
2022/01/15 09:47:21;;;;;;;7.10;4.50;;;4.80;99.90;;;;;;5128127;27;20055;-66
2022/01/15 09:49:48;;;;;;;6.82;4.22;;;4.50;99.90;;;;;;5115535;28;20138;-67
2022/01/15 09:52:16;;;;;;;6.95;4.38;;;4.50;99.90;;;;;;5123126;27;20084;-66
2022/01/15 09:54:41;;;;;;;9.05;5.65;;;4.40;99.90;;;;;;5129331;27;20032;-66
2022/01/15 09:57:07;;;;;;;6.25;4.75;;;4.10;99.90;;;;;;5122136;27;20117;-67
2022/01/15 09:59:33;;;;;;;8.07;5.55;;;3.80;99.90;;;;;;5119607;27;20506;-66
2022/01/15 10:02:02;;;;;;;8.65;5.45;;;3.70;99.90;;;;;;5116053;28;20039;-66
2022/01/15 10:04:32;;;;;;;8.07;5.57;;;3.60;99.90;;;;;;5115767;28;20089;-73
2022/01/15 10:07:13;;;;;;;8.90;5.60;;;3.60;99.90;;;;;;5115878;27;20020;-70
2022/01/15 10:09:41;;;;;;;11.00;7.22;;;3.70;99.90;;;;;;5116664;27;20028;-67
2022/01/15 10:12:07;;;;;;;10.27;6.55;;;3.60;99.90;;;;;;5121464;27;20067;-67
2022/01/15 10:14:38;;;;;;;7.88;6.15;;;3.80;99.90;;;;;;5133993;27;20027;-66
2022/01/15 10:17:23;;;;;;;11.90;6.30;;;3.60;99.90;;;;;;5115542;27;20024;-66
2022/01/15 10:19:50;;;;;;;10.07;6.93;;;3.70;99.90;;;;;;5114704;28;20024;-65
2022/01/15 10:22:19;;;;;;;9.95;6.25;;;3.90;99.90;;;;;;5128115;27;20122;-66
2022/01/15 10:24:58;;;;;;;12.13;6.45;;;4.00;99.90;;;;;;5124466;27;20051;-72
2022/01/15 10:27:29;;;;;;;8.50;6.20;;;4.00;99.90;;;;;;5133205;27;20031;-67
2022/01/15 10:29:58;;;;;;;8.00;6.28;;;4.20;99.90;;;;;;5125140;27;20059;-68
2022/01/15 10:32:26;;;;;;;9.82;6.93;;;3.90;99.90;;;;;;5125250;27;20118;-67
2022/01/15 10:34:52;;;;;;;8.88;7.05;;;3.70;99.90;;;;;;5125231;27;20427;-68
2022/01/15 10:37:24;;;;;;;9.88;7.70;;;3.60;99.90;;;;;;5121910;27;20027;-67
2022/01/15 10:39:53;;;;;;;;;;;3.40;99.90;;;;;;5130907;27;20318;-66
2022/01/15 10:42:23;;;;;;;12.82;7.00;;;3.40;99.90;;;;;;5117204;27;19936;-67
2022/01/15 10:44:50;;;;;;;13.63;7.30;;;3.40;99.90;;;;;;5124086;27;20472;-67
2022/01/15 10:47:17;;;;;;;10.85;7.75;;;3.50;99.90;;;;;;5120289;27;20073;-67
2022/01/15 10:49:44;;;;;;;7.75;5.43;;;3.60;99.90;;;;;;5127096;27;20027;-67
2022/01/15 10:52:17;;;;;;;7.97;6.10;;;3.80;99.90;;;;;;5122384;27;20409;-69
2022/01/15 10:55:08;;;;;;;11.70;7.43;;;3.70;99.90;;;;;;5119951;27;20031;-67
2022/01/15 10:57:43;;;;;;;29.67;7.75;;;3.90;99.90;;;;;;5118953;27;20032;-65
2022/01/15 11:00:19;;;;;;;11.50;6.78;;;4.00;99.90;;;;;;5127929;27;20019;-73
2022/01/15 11:02:57;;;;;;;10.10;6.82;;;4.20;99.90;;;;;;5123059;27;20042;-70
2022/01/15 11:05:44;;;;;;;10.30;7.10;;;4.20;99.90;;;;;;5117059;27;20028;-68
2022/01/15 11:08:17;;;;;;;8.77;5.45;;;4.20;99.90;;;;;;5126955;27;20518;-68
2022/01/15 11:10:53;;;;;;;10.48;6.50;;;4.30;99.90;;;;;;5117687;27;20468;-69
2022/01/15 11:13:24;;;;;;;9.05;5.90;;;4.30;99.90;;;;;;5115690;27;20080;-66
2022/01/15 11:15:56;;;;;;;9.52;6.95;;;4.40;99.90;;;;;;5117687;27;20031;-67
2022/01/15 11:18:33;;;;;;;8.30;6.38;;;4.40;99.90;;;;;;5121029;27;20337;-66
2022/01/15 11:21:02;;;;;;;8.93;6.32;;;4.50;99.90;;;;;;5113084;27;20111;-66
2022/01/15 11:23:29;;;;;;;16.90;6.18;;;4.40;99.90;;;;;;5126076;27;20051;-66
2022/01/15 11:25:59;;;;;;;7.18;6.13;;;4.50;99.90;;;;;;5122573;27;20031;-68
2022/01/15 11:28:28;;;;;;;12.88;5.80;;;4.50;99.90;;;;;;5126628;27;20030;-66
2022/01/15 11:31:08;;;;;;;9.27;4.95;;;4.50;99.90;;;;;;5120386;27;20069;-67
2022/01/15 11:33:55;;;;;;;7.35;6.03;;;4.50;99.90;;;;;;5115154;27;20043;-66
2022/01/15 11:36:33;;;;;;;8.68;5.90;;;5.60;99.90;;;;;;5117371;27;20036;-69
2022/01/15 11:39:03;;;;;;;7.68;5.50;;;5.40;99.90;;;;;;5128295;27;20030;-70
2022/01/15 11:41:32;;;;;;;6.65;4.78;;;4.60;99.90;;;;;;5120206;27;20027;-70
2022/01/15 11:44:03;;;;;;;5.47;4.22;;;4.30;99.90;;;;;;5121372;27;20118;-72
2022/01/15 11:46:41;;;;;;;7.75;5.13;;;4.20;99.90;;;;;;5115099;27;20031;-69
2022/01/15 11:49:42;;;;;;;7.93;5.90;;;4.00;99.90;;;;;;5126451;27;20126;-67
2022/01/15 11:52:14;;;;;;;6.78;4.97;;;3.80;99.90;;;;;;5122850;27;20042;-69
2022/01/15 11:55:04;;;;;;;6.60;5.43;;;3.80;99.90;;;;;;5119508;27;20447;-68
2022/01/15 11:57:33;;;;;;;6.20;5.15;;;3.90;99.90;;;;;;5112357;27;20042;-67
2022/01/15 12:00:00;;;;;;;7.15;4.75;;;3.90;99.90;;;;;;5116689;27;20027;-67
2022/01/15 12:02:31;;;;;;;16.33;6.40;;;3.90;99.90;;;;;;5119653;27;20496;-67
2022/01/15 12:05:16;;;;;;;11.20;5.63;;;4.00;99.90;;;;;;5118690;27;20468;-66
2022/01/15 12:07:42;;;;;;;9.02;5.90;;;4.30;99.90;;;;;;5123014;27;20023;-68
2022/01/15 12:10:15;;;;;;;7.68;6.00;;;4.40;99.90;;;;;;5126933;27;20053;-69
2022/01/15 12:12:46;;;;;;;8.10;6.85;;;4.20;99.90;;;;;;5115824;27;20034;-69
2022/01/15 12:15:17;;;;;;;7.65;5.88;;;4.30;99.90;;;;;;5120975;27;20163;-69
2022/01/15 12:17:54;;;;;;;9.32;6.28;;;4.30;99.90;;;;;;5113079;27;20439;-72
2022/01/15 12:20:25;;;;;;;12.50;7.72;;;4.40;99.90;;;;;;5121570;27;20023;-67
2022/01/15 12:22:57;;;;;;;7.60;6.05;;;4.60;99.90;;;;;;5113052;28;20043;-67
2022/01/15 12:25:22;;;;;;;8.60;6.32;;;4.50;99.90;;;;;;5119836;27;20084;-68
2022/01/15 12:27:59;;;;;;;8.65;6.07;;;4.40;99.90;;;;;;5122984;27;20028;-66
2022/01/15 12:30:40;;;;;;;7.93;6.55;;;4.20;99.90;;;;;;5115023;27;20066;-69
2022/01/15 12:33:10;;;;;;;11.70;6.03;;;4.40;99.90;;;;;;5115917;27;20073;-68
2022/01/15 12:35:37;;;;;;;7.90;5.95;;;4.30;99.90;;;;;;5116744;27;20135;-74
2022/01/15 12:38:02;;;;;;;10.80;6.22;;;4.30;99.90;;;;;;5113907;28;20032;-67
2022/01/15 12:40:38;;;;;;;6.40;5.25;;;4.50;99.90;;;;;;5125756;28;20071;-68
2022/01/15 12:43:07;;;;;;;8.13;5.22;;;4.50;99.90;;;;;;5119504;28;20066;-68
2022/01/15 12:45:35;;;;;;;8.30;5.97;;;4.60;99.90;;;;;;5119788;28;20039;-69
2022/01/15 12:48:03;;;;;;;8.20;6.38;;;4.60;99.90;;;;;;5120403;28;20133;-69
2022/01/15 12:50:40;;;;;;;8.32;5.63;;;4.50;99.90;;;;;;5118064;28;20376;-68
2022/01/15 12:53:08;;;;;;;8.35;6.45;;;4.50;99.90;;;;;;5120621;28;20054;-69
2022/01/15 12:55:36;;;;;;;9.10;6.18;;;4.30;99.90;;;;;;5120678;28;20028;-69
2022/01/15 12:58:06;;;;;;;12.70;7.10;;;4.50;99.90;;;;;;5118822;27;20360;-73
2022/01/15 13:00:34;;;;;;;8.73;6.28;;;4.50;99.90;;;;;;5126503;27;20023;-69
2022/01/15 13:03:08;;;;;;;11.10;7.18;;;4.50;99.90;;;;;;5126497;27;20130;-69
2022/01/15 13:05:37;;;;;;;8.35;6.45;;;4.50;99.90;;;;;;5123443;27;20027;-70
2022/01/15 13:08:05;;;;;;;9.18;6.60;;;4.50;99.90;;;;;;5126220;27;20028;-71
2022/01/15 13:10:49;;;;;;;10.25;6.50;;;4.50;99.90;;;;;;5125712;27;20933;-68
2022/01/15 13:13:21;;;;;;;8.32;6.57;;;4.50;99.90;;;;;;5120538;27;20432;-69
2022/01/15 13:15:56;;;;;;;11.13;8.00;;;4.60;99.90;;;;;;5128266;27;20019;-69
2022/01/15 13:18:21;;;;;;;10.68;6.80;;;4.50;99.90;;;;;;5123572;27;20034;-70